sensor_id;sensor_type;location;lat;lon;timestamp;temperature;humidity
33673;DHT22;20011;51.510;9.942;2023-10-09T00:02:10;15.20;99.90
33673;DHT22;20011;51.510;9.942;2023-10-09T00:04:38;15.20;99.90
33673;DHT22;20011;51.510;9.942;2023-10-09T00:07:09;15.10;99.90
33673;DHT22;20011;51.510;9.942;2023-10-09T00:09:38;15.10;99.90
33673;DHT22;20011;51.510;9.942;2023-10-09T00:12:19;15.10;99.90
33673;DHT22;20011;51.510;9.942;2023-10-09T00:14:51;15.10;99.90
33673;DHT22;20011;51.510;9.942;2023-10-09T00:17:22;15.10;99.90
33673;DHT22;20011;51.510;9.942;2023-10-09T00:19:51;15.10;99.90
33673;DHT22;20011;51.510;9.942;2023-10-09T00:22:18;15.10;99.90
33673;DHT22;20011;51.510;9.942;2023-10-09T00:24:53;15.10;99.90
33673;DHT22;20011;51.510;9.942;2023-10-09T00:27:38;15.10;99.90
33673;DHT22;20011;51.510;9.942;2023-10-09T00:30:14;15.10;99.90
33673;DHT22;20011;51.510;9.942;2023-10-09T00:32:49;15.20;99.90
33673;DHT22;20011;51.510;9.942;2023-10-09T00:35:26;15.20;99.90
33673;DHT22;20011;51.510;9.942;2023-10-09T00:38:11;15.10;99.90
33673;DHT22;20011;51.510;9.942;2023-10-09T00:40:48;15.20;99.90
33673;DHT22;20011;51.510;9.942;2023-10-09T00:43:24;15.20;99.90
33673;DHT22;20011;51.510;9.942;2023-10-09T00:45:57;15.20;99.90
33673;DHT22;20011;51.510;9.942;2023-10-09T00:48:36;15.20;99.90
33673;DHT22;20011;51.510;9.942;2023-10-09T00:51:08;15.10;99.90
33673;DHT22;20011;51.510;9.942;2023-10-09T00:53:47;15.20;99.90
33673;DHT22;20011;51.510;9.942;2023-10-09T00:56:21;15.10;99.90
33673;DHT22;20011;51.510;9.942;2023-10-09T00:58:57;15.10;99.90
33673;DHT22;20011;51.510;9.942;2023-10-09T01:01:34;15.20;99.90
33673;DHT22;20011;51.510;9.942;2023-10-09T01:04:04;15.20;99.90
33673;DHT22;20011;51.510;9.942;2023-10-09T01:06:46;15.20;99.90
33673;DHT22;20011;51.510;9.942;2023-10-09T01:09:32;15.20;99.90
33673;DHT22;20011;51.510;9.942;2023-10-09T01:12:10;15.20;99.90
33673;DHT22;20011;51.510;9.942;2023-10-09T01:14:47;15.20;99.90
33673;DHT22;20011;51.510;9.942;2023-10-09T01:17:22;15.10;99.90
33673;DHT22;20011;51.510;9.942;2023-10-09T01:20:11;15.20;99.90
33673;DHT22;20011;51.510;9.942;2023-10-09T01:22:43;15.10;99.90
33673;DHT22;20011;51.510;9.942;2023-10-09T01:25:10;15.00;99.90
33673;DHT22;20011;51.510;9.942;2023-10-09T01:27:37;15.10;99.90
33673;DHT22;20011;51.510;9.942;2023-10-09T01:30:07;15.00;99.90
33673;DHT22;20011;51.510;9.942;2023-10-09T01:32:40;15.00;99.90
33673;DHT22;20011;51.510;9.942;2023-10-09T01:35:08;14.90;99.90
33673;DHT22;20011;51.510;9.942;2023-10-09T01:37:46;15.00;99.90
33673;DHT22;20011;51.510;9.942;2023-10-09T01:40:18;14.90;99.90
33673;DHT22;20011;51.510;9.942;2023-10-09T01:43:03;14.90;99.90
33673;DHT22;20011;51.510;9.942;2023-10-09T01:45:30;14.90;99.90
33673;DHT22;20011;51.510;9.942;2023-10-09T01:48:09;14.90;99.90
33673;DHT22;20011;51.510;9.942;2023-10-09T01:50:39;14.90;99.90
33673;DHT22;20011;51.510;9.942;2023-10-09T01:53:09;14.90;99.90
33673;DHT22;20011;51.510;9.942;2023-10-09T01:55:36;14.80;99.90
33673;DHT22;20011;51.510;9.942;2023-10-09T01:58:08;14.90;99.90
33673;DHT22;20011;51.510;9.942;2023-10-09T02:00:51;14.90;99.90
33673;DHT22;20011;51.510;9.942;2023-10-09T02:03:23;14.90;99.90
33673;DHT22;20011;51.510;9.942;2023-10-09T02:05:52;14.90;99.90
33673;DHT22;20011;51.510;9.942;2023-10-09T02:08:30;14.90;99.90
33673;DHT22;20011;51.510;9.942;2023-10-09T02:11:01;14.80;99.90
33673;DHT22;20011;51.510;9.942;2023-10-09T02:13:29;14.90;99.90
33673;DHT22;20011;51.510;9.942;2023-10-09T02:15:57;14.90;99.90
33673;DHT22;20011;51.510;9.942;2023-10-09T02:18:55;14.90;99.90
33673;DHT22;20011;51.510;9.942;2023-10-09T02:21:34;14.80;99.90
33673;DHT22;20011;51.510;9.942;2023-10-09T02:24:07;14.90;99.90
33673;DHT22;20011;51.510;9.942;2023-10-09T02:26:53;14.80;99.90
33673;DHT22;20011;51.510;9.942;2023-10-09T02:29:20;14.80;99.90
33673;DHT22;20011;51.510;9.942;2023-10-09T02:31:50;14.90;99.90
33673;DHT22;20011;51.510;9.942;2023-10-09T02:34:28;14.80;99.90
33673;DHT22;20011;51.510;9.942;2023-10-09T02:36:56;14.90;99.90
33673;DHT22;20011;51.510;9.942;2023-10-09T02:39:32;14.80;99.90
33673;DHT22;20011;51.510;9.942;2023-10-09T02:42:14;14.90;99.90
33673;DHT22;20011;51.510;9.942;2023-10-09T02:44:41;14.90;99.90
33673;DHT22;20011;51.510;9.942;2023-10-09T02:47:19;14.90;99.90
33673;DHT22;20011;51.510;9.942;2023-10-09T02:49:56;14.90;99.90
33673;DHT22;20011;51.510;9.942;2023-10-09T02:52:35;14.90;99.90
33673;DHT22;20011;51.510;9.942;2023-10-09T02:55:08;14.90;99.90
33673;DHT22;20011;51.510;9.942;2023-10-09T02:57:40;15.00;99.90
33673;DHT22;20011;51.510;9.942;2023-10-09T03:00:08;15.00;99.90
33673;DHT22;20011;51.510;9.942;2023-10-09T03:02:36;14.90;99.90
33673;DHT22;20011;51.510;9.942;2023-10-09T03:05:07;15.00;99.90
33673;DHT22;20011;51.510;9.942;2023-10-09T03:07:39;15.00;99.90
33673;DHT22;20011;51.510;9.942;2023-10-09T03:10:09;15.00;99.90
33673;DHT22;20011;51.510;9.942;2023-10-09T03:12:36;15.10;99.90
33673;DHT22;20011;51.510;9.942;2023-10-09T03:15:06;15.10;99.90
33673;DHT22;20011;51.510;9.942;2023-10-09T03:17:35;15.10;99.90
33673;DHT22;20011;51.510;9.942;2023-10-09T03:20:06;15.20;99.90
33673;DHT22;20011;51.510;9.942;2023-10-09T03:22:40;15.10;99.90
33673;DHT22;20011;51.510;9.942;2023-10-09T03:25:07;15.20;99.90
33673;DHT22;20011;51.510;9.942;2023-10-09T03:27:39;15.20;99.90
33673;DHT22;20011;51.510;9.942;2023-10-09T03:30:13;15.20;99.90
33673;DHT22;20011;51.510;9.942;2023-10-09T03:32:44;15.20;99.90
33673;DHT22;20011;51.510;9.942;2023-10-09T03:35:14;15.20;99.90
33673;DHT22;20011;51.510;9.942;2023-10-09T03:37:44;15.20;99.90
33673;DHT22;20011;51.510;9.942;2023-10-09T03:40:11;15.20;99.90
33673;DHT22;20011;51.510;9.942;2023-10-09T03:42:44;15.30;99.90
33673;DHT22;20011;51.510;9.942;2023-10-09T03:45:11;15.30;99.90
33673;DHT22;20011;51.510;9.942;2023-10-09T03:47:55;15.30;99.90
33673;DHT22;20011;51.510;9.942;2023-10-09T03:50:43;15.30;99.90
33673;DHT22;20011;51.510;9.942;2023-10-09T03:53:12;15.30;99.90
33673;DHT22;20011;51.510;9.942;2023-10-09T03:55:40;15.30;99.90
33673;DHT22;20011;51.510;9.942;2023-10-09T03:58:07;15.40;99.90
33673;DHT22;20011;51.510;9.942;2023-10-09T04:00:35;15.30;99.90
33673;DHT22;20011;51.510;9.942;2023-10-09T04:03:12;15.30;99.90
33673;DHT22;20011;51.510;9.942;2023-10-09T04:05:42;15.30;99.90
33673;DHT22;20011;51.510;9.942;2023-10-09T04:08:11;15.40;99.90
33673;DHT22;20011;51.510;9.942;2023-10-09T04:10:46;15.30;99.90
33673;DHT22;20011;51.510;9.942;2023-10-09T04:13:24;15.40;99.90
33673;DHT22;20011;51.510;9.942;2023-10-09T04:16:01;15.30;99.90
33673;DHT22;20011;51.510;9.942;2023-10-09T04:18:36;15.30;99.90
33673;DHT22;20011;51.510;9.942;2023-10-09T04:21:06;15.40;99.90
33673;DHT22;20011;51.510;9.942;2023-10-09T04:24:06;15.40;99.90
33673;DHT22;20011;51.510;9.942;2023-10-09T04:26:37;15.40;99.90
33673;DHT22;20011;51.510;9.942;2023-10-09T04:29:04;15.40;99.90
33673;DHT22;20011;51.510;9.942;2023-10-09T04:31:30;15.40;99.90
33673;DHT22;20011;51.510;9.942;2023-10-09T04:34:04;15.30;99.90
33673;DHT22;20011;51.510;9.942;2023-10-09T04:36:50;15.30;99.90
33673;DHT22;20011;51.510;9.942;2023-10-09T04:39:27;15.30;99.90
33673;DHT22;20011;51.510;9.942;2023-10-09T04:41:58;15.30;99.90
33673;DHT22;20011;51.510;9.942;2023-10-09T04:44:44;15.30;99.90
33673;DHT22;20011;51.510;9.942;2023-10-09T04:50:06;15.40;99.90
33673;DHT22;20011;51.510;9.942;2023-10-09T04:52:33;15.30;99.90
33673;DHT22;20011;51.510;9.942;2023-10-09T04:55:01;15.30;99.90
33673;DHT22;20011;51.510;9.942;2023-10-09T04:57:41;15.30;99.90
33673;DHT22;20011;51.510;9.942;2023-10-09T05:00:26;15.40;99.90
33673;DHT22;20011;51.510;9.942;2023-10-09T05:02:56;15.30;99.90
33673;DHT22;20011;51.510;9.942;2023-10-09T05:05:37;15.30;99.90
33673;DHT22;20011;51.510;9.942;2023-10-09T05:08:04;15.40;99.90
33673;DHT22;20011;51.510;9.942;2023-10-09T05:11:00;15.40;99.90
33673;DHT22;20011;51.510;9.942;2023-10-09T05:13:34;15.30;99.90
33673;DHT22;20011;51.510;9.942;2023-10-09T05:16:17;15.30;99.90
33673;DHT22;20011;51.510;9.942;2023-10-09T05:18:55;15.30;99.90
33673;DHT22;20011;51.510;9.942;2023-10-09T05:21:43;15.40;99.90
33673;DHT22;20011;51.510;9.942;2023-10-09T05:24:13;15.40;99.90
33673;DHT22;20011;51.510;9.942;2023-10-09T05:26:47;15.40;99.90
33673;DHT22;20011;51.510;9.942;2023-10-09T05:29:21;15.40;99.90
33673;DHT22;20011;51.510;9.942;2023-10-09T05:32:02;15.40;99.90
33673;DHT22;20011;51.510;9.942;2023-10-09T05:34:43;15.40;99.90
33673;DHT22;20011;51.510;9.942;2023-10-09T05:37:32;15.40;99.90
33673;DHT22;20011;51.510;9.942;2023-10-09T05:40:03;15.40;99.90
33673;DHT22;20011;51.510;9.942;2023-10-09T05:42:36;15.50;99.90
33673;DHT22;20011;51.510;9.942;2023-10-09T05:45:07;15.50;99.90
33673;DHT22;20011;51.510;9.942;2023-10-09T05:47:49;15.50;99.90
33673;DHT22;20011;51.510;9.942;2023-10-09T05:50:26;15.50;99.90
33673;DHT22;20011;51.510;9.942;2023-10-09T05:52:55;15.50;99.90
33673;DHT22;20011;51.510;9.942;2023-10-09T05:55:24;15.40;99.90
33673;DHT22;20011;51.510;9.942;2023-10-09T05:57:55;15.40;99.90
33673;DHT22;20011;51.510;9.942;2023-10-09T06:00:40;15.50;99.90
33673;DHT22;20011;51.510;9.942;2023-10-09T06:03:25;15.40;99.90
33673;DHT22;20011;51.510;9.942;2023-10-09T06:05:54;15.50;99.90
33673;DHT22;20011;51.510;9.942;2023-10-09T06:08:26;15.40;99.90
33673;DHT22;20011;51.510;9.942;2023-10-09T06:11:12;15.50;99.90
33673;DHT22;20011;51.510;9.942;2023-10-09T06:14:00;15.50;99.90
33673;DHT22;20011;51.510;9.942;2023-10-09T06:16:40;15.40;99.90
33673;DHT22;20011;51.510;9.942;2023-10-09T06:19:26;15.50;99.90
33673;DHT22;20011;51.510;9.942;2023-10-09T06:21:58;15.50;99.90
33673;DHT22;20011;51.510;9.942;2023-10-09T06:24:44;15.40;99.90
33673;DHT22;20011;51.510;9.942;2023-10-09T06:27:21;15.50;99.90
33673;DHT22;20011;51.510;9.942;2023-10-09T06:30:01;15.50;99.90
33673;DHT22;20011;51.510;9.942;2023-10-09T06:32:46;15.50;99.90
33673;DHT22;20011;51.510;9.942;2023-10-09T06:35:18;15.50;99.90
33673;DHT22;20011;51.510;9.942;2023-10-09T06:38:14;15.50;99.90
33673;DHT22;20011;51.510;9.942;2023-10-09T06:40:50;15.50;99.90
33673;DHT22;20011;51.510;9.942;2023-10-09T06:43:32;15.60;99.90
33673;DHT22;20011;51.510;9.942;2023-10-09T06:46:03;15.60;99.90
33673;DHT22;20011;51.510;9.942;2023-10-09T06:48:50;15.60;99.90
33673;DHT22;20011;51.510;9.942;2023-10-09T06:51:24;15.70;99.90
33673;DHT22;20011;51.510;9.942;2023-10-09T06:53:57;15.70;99.90
33673;DHT22;20011;51.510;9.942;2023-10-09T06:56:33;15.70;99.90
33673;DHT22;20011;51.510;9.942;2023-10-09T06:59:05;15.70;99.90
33673;DHT22;20011;51.510;9.942;2023-10-09T07:01:43;15.80;99.90
33673;DHT22;20011;51.510;9.942;2023-10-09T07:04:14;15.80;99.90
33673;DHT22;20011;51.510;9.942;2023-10-09T07:06:59;15.80;99.90
33673;DHT22;20011;51.510;9.942;2023-10-09T07:09:34;15.80;99.90
33673;DHT22;20011;51.510;9.942;2023-10-09T07:12:12;15.80;99.90
33673;DHT22;20011;51.510;9.942;2023-10-09T07:14:52;15.80;99.90
33673;DHT22;20011;51.510;9.942;2023-10-09T07:17:22;15.80;99.90
33673;DHT22;20011;51.510;9.942;2023-10-09T07:19:51;15.80;99.90
33673;DHT22;20011;51.510;9.942;2023-10-09T07:22:18;15.80;99.90
33673;DHT22;20011;51.510;9.942;2023-10-09T07:24:51;15.90;99.90
33673;DHT22;20011;51.510;9.942;2023-10-09T07:27:27;15.90;99.90
33673;DHT22;20011;51.510;9.942;2023-10-09T07:30:12;15.90;99.90
33673;DHT22;20011;51.510;9.942;2023-10-09T07:33:05;16.00;99.90
33673;DHT22;20011;51.510;9.942;2023-10-09T07:35:33;15.90;99.90
33673;DHT22;20011;51.510;9.942;2023-10-09T07:38:17;16.00;99.90
33673;DHT22;20011;51.510;9.942;2023-10-09T07:40:47;15.90;99.90
33673;DHT22;20011;51.510;9.942;2023-10-09T07:43:46;15.90;99.90
33673;DHT22;20011;51.510;9.942;2023-10-09T07:46:18;15.90;99.90
33673;DHT22;20011;51.510;9.942;2023-10-09T07:49:02;15.90;99.90
33673;DHT22;20011;51.510;9.942;2023-10-09T07:51:36;16.00;99.90
33673;DHT22;20011;51.510;9.942;2023-10-09T07:54:04;16.00;99.90
33673;DHT22;20011;51.510;9.942;2023-10-09T07:56:35;16.00;99.90
33673;DHT22;20011;51.510;9.942;2023-10-09T07:59:07;16.00;99.90
33673;DHT22;20011;51.510;9.942;2023-10-09T08:01:43;16.00;99.90
33673;DHT22;20011;51.510;9.942;2023-10-09T08:04:20;16.00;99.90
33673;DHT22;20011;51.510;9.942;2023-10-09T08:09:55;16.00;99.90
33673;DHT22;20011;51.510;9.942;2023-10-09T08:12:41;16.00;99.90
33673;DHT22;20011;51.510;9.942;2023-10-09T08:15:25;16.00;99.90
33673;DHT22;20011;51.510;9.942;2023-10-09T08:18:15;16.00;99.90
33673;DHT22;20011;51.510;9.942;2023-10-09T08:20:55;16.00;99.90
33673;DHT22;20011;51.510;9.942;2023-10-09T08:23:25;16.10;99.90
33673;DHT22;20011;51.510;9.942;2023-10-09T08:26:16;16.00;99.90
33673;DHT22;20011;51.510;9.942;2023-10-09T08:28:56;16.00;99.90
33673;DHT22;20011;51.510;9.942;2023-10-09T08:31:46;16.00;99.90
33673;DHT22;20011;51.510;9.942;2023-10-09T08:34:13;16.10;99.90
33673;DHT22;20011;51.510;9.942;2023-10-09T08:37:11;16.10;99.90
33673;DHT22;20011;51.510;9.942;2023-10-09T08:39:40;16.10;99.90
33673;DHT22;20011;51.510;9.942;2023-10-09T08:42:10;16.20;99.90
33673;DHT22;20011;51.510;9.942;2023-10-09T08:44:39;16.10;99.90
33673;DHT22;20011;51.510;9.942;2023-10-09T08:47:12;16.20;99.90
33673;DHT22;20011;51.510;9.942;2023-10-09T08:49:39;16.20;99.90
33673;DHT22;20011;51.510;9.942;2023-10-09T08:52:06;16.20;99.90
33673;DHT22;20011;51.510;9.942;2023-10-09T08:54:33;16.20;99.90
33673;DHT22;20011;51.510;9.942;2023-10-09T08:57:00;16.40;99.90
33673;DHT22;20011;51.510;9.942;2023-10-09T08:59:28;16.40;99.90
33673;DHT22;20011;51.510;9.942;2023-10-09T09:01:55;16.30;99.90
33673;DHT22;20011;51.510;9.942;2023-10-09T09:04:40;16.40;99.90
33673;DHT22;20011;51.510;9.942;2023-10-09T09:07:28;16.50;99.90
33673;DHT22;20011;51.510;9.942;2023-10-09T09:09:59;16.40;99.90
33673;DHT22;20011;51.510;9.942;2023-10-09T09:12:44;16.50;99.90
33673;DHT22;20011;51.510;9.942;2023-10-09T09:15:14;16.50;99.90
33673;DHT22;20011;51.510;9.942;2023-10-09T09:17:46;16.60;99.90
33673;DHT22;20011;51.510;9.942;2023-10-09T09:20:24;16.60;99.90
33673;DHT22;20011;51.510;9.942;2023-10-09T09:23:01;16.60;99.90
33673;DHT22;20011;51.510;9.942;2023-10-09T09:25:42;16.60;99.90
33673;DHT22;20011;51.510;9.942;2023-10-09T09:28:16;16.70;99.90
33673;DHT22;20011;51.510;9.942;2023-10-09T09:30:49;16.70;99.90
33673;DHT22;20011;51.510;9.942;2023-10-09T09:33:22;16.70;99.90
33673;DHT22;20011;51.510;9.942;2023-10-09T09:36:09;16.70;99.90
33673;DHT22;20011;51.510;9.942;2023-10-09T09:38:39;16.70;99.90
33673;DHT22;20011;51.510;9.942;2023-10-09T09:41:15;16.70;99.90
33673;DHT22;20011;51.510;9.942;2023-10-09T09:43:56;16.70;99.90
33673;DHT22;20011;51.510;9.942;2023-10-09T09:46:23;16.70;99.90
33673;DHT22;20011;51.510;9.942;2023-10-09T09:49:01;16.70;99.90
33673;DHT22;20011;51.510;9.942;2023-10-09T09:51:34;16.70;99.90
33673;DHT22;20011;51.510;9.942;2023-10-09T09:54:01;16.80;99.90
33673;DHT22;20011;51.510;9.942;2023-10-09T09:56:29;16.80;99.90
33673;DHT22;20011;51.510;9.942;2023-10-09T09:59:01;16.80;99.90
33673;DHT22;20011;51.510;9.942;2023-10-09T10:01:30;16.80;99.90
33673;DHT22;20011;51.510;9.942;2023-10-09T10:04:07;16.80;99.90
33673;DHT22;20011;51.510;9.942;2023-10-09T10:06:43;16.70;99.90
33673;DHT22;20011;51.510;9.942;2023-10-09T10:09:41;16.80;99.90
33673;DHT22;20011;51.510;9.942;2023-10-09T10:12:08;16.80;99.90
33673;DHT22;20011;51.510;9.942;2023-10-09T10:17:25;16.80;99.90
33673;DHT22;20011;51.510;9.942;2023-10-09T10:20:08;16.80;99.90
33673;DHT22;20011;51.510;9.942;2023-10-09T10:22:44;16.80;99.90
33673;DHT22;20011;51.510;9.942;2023-10-09T10:28:25;16.80;99.90
33673;DHT22;20011;51.510;9.942;2023-10-09T10:30:56;16.80;99.90
33673;DHT22;20011;51.510;9.942;2023-10-09T10:33:31;16.80;99.90
33673;DHT22;20011;51.510;9.942;2023-10-09T10:36:14;16.80;99.90
33673;DHT22;20011;51.510;9.942;2023-10-09T10:39:05;16.80;99.90
33673;DHT22;20011;51.510;9.942;2023-10-09T10:41:37;16.80;99.90
33673;DHT22;20011;51.510;9.942;2023-10-09T10:44:29;16.80;99.90
33673;DHT22;20011;51.510;9.942;2023-10-09T10:47:08;16.90;99.90
33673;DHT22;20011;51.510;9.942;2023-10-09T10:50:03;16.90;99.90
33673;DHT22;20011;51.510;9.942;2023-10-09T10:52:49;16.90;99.90
33673;DHT22;20011;51.510;9.942;2023-10-09T10:55:24;16.90;99.90
33673;DHT22;20011;51.510;9.942;2023-10-09T10:57:57;16.90;99.90
33673;DHT22;20011;51.510;9.942;2023-10-09T11:00:40;16.90;99.90
33673;DHT22;20011;51.510;9.942;2023-10-09T11:03:27;17.00;99.90
33673;DHT22;20011;51.510;9.942;2023-10-09T11:06:03;17.10;99.90
33673;DHT22;20011;51.510;9.942;2023-10-09T11:08:48;17.00;99.90
33673;DHT22;20011;51.510;9.942;2023-10-09T11:11:22;17.10;99.90
33673;DHT22;20011;51.510;9.942;2023-10-09T11:13:49;17.10;99.90
33673;DHT22;20011;51.510;9.942;2023-10-09T11:16:22;17.10;99.90
33673;DHT22;20011;51.510;9.942;2023-10-09T11:19:07;17.20;99.90
33673;DHT22;20011;51.510;9.942;2023-10-09T11:21:55;17.20;99.90
33673;DHT22;20011;51.510;9.942;2023-10-09T11:24:49;17.20;99.90
33673;DHT22;20011;51.510;9.942;2023-10-09T11:27:36;17.10;99.90
33673;DHT22;20011;51.510;9.942;2023-10-09T11:30:06;17.20;99.90
33673;DHT22;20011;51.510;9.942;2023-10-09T11:32:48;17.20;99.90
33673;DHT22;20011;51.510;9.942;2023-10-09T11:35:17;17.20;99.90
33673;DHT22;20011;51.510;9.942;2023-10-09T11:37:57;17.10;99.90
33673;DHT22;20011;51.510;9.942;2023-10-09T11:40:48;17.20;99.90
33673;DHT22;20011;51.510;9.942;2023-10-09T11:43:53;17.20;99.90
33673;DHT22;20011;51.510;9.942;2023-10-09T11:46:21;17.20;99.90
33673;DHT22;20011;51.510;9.942;2023-10-09T11:49:08;17.20;99.90
33673;DHT22;20011;51.510;9.942;2023-10-09T11:51:52;17.30;99.90
33673;DHT22;20011;51.510;9.942;2023-10-09T11:54:38;17.20;99.90
33673;DHT22;20011;51.510;9.942;2023-10-09T11:57:05;17.20;99.90
33673;DHT22;20011;51.510;9.942;2023-10-09T11:59:33;17.30;99.90
33673;DHT22;20011;51.510;9.942;2023-10-09T12:02:09;17.30;99.90
33673;DHT22;20011;51.510;9.942;2023-10-09T12:04:40;17.30;99.90
33673;DHT22;20011;51.510;9.942;2023-10-09T12:07:12;17.30;99.90
33673;DHT22;20011;51.510;9.942;2023-10-09T12:09:40;17.40;99.90
33673;DHT22;20011;51.510;9.942;2023-10-09T12:12:08;17.30;99.90
33673;DHT22;20011;51.510;9.942;2023-10-09T12:14:37;17.40;99.90
33673;DHT22;20011;51.510;9.942;2023-10-09T12:17:05;17.30;99.90
33673;DHT22;20011;51.510;9.942;2023-10-09T12:19:37;17.30;99.90
33673;DHT22;20011;51.510;9.942;2023-10-09T12:22:08;17.30;99.90
33673;DHT22;20011;51.510;9.942;2023-10-09T12:24:42;17.30;99.90
33673;DHT22;20011;51.510;9.942;2023-10-09T12:27:10;17.20;99.90
33673;DHT22;20011;51.510;9.942;2023-10-09T12:29:38;17.30;99.90
33673;DHT22;20011;51.510;9.942;2023-10-09T12:32:12;17.20;99.90
33673;DHT22;20011;51.510;9.942;2023-10-09T12:34:39;17.30;99.90
33673;DHT22;20011;51.510;9.942;2023-10-09T12:37:06;17.30;99.90
33673;DHT22;20011;51.510;9.942;2023-10-09T12:39:33;17.30;99.90
33673;DHT22;20011;51.510;9.942;2023-10-09T12:42:00;17.30;99.90
33673;DHT22;20011;51.510;9.942;2023-10-09T12:44:35;17.20;99.90
33673;DHT22;20011;51.510;9.942;2023-10-09T12:47:09;17.30;99.90
33673;DHT22;20011;51.510;9.942;2023-10-09T12:49:38;17.20;99.90
33673;DHT22;20011;51.510;9.942;2023-10-09T12:52:09;17.20;99.90
33673;DHT22;20011;51.510;9.942;2023-10-09T12:54:43;17.20;99.90
33673;DHT22;20011;51.510;9.942;2023-10-09T12:57:13;17.20;99.90
33673;DHT22;20011;51.510;9.942;2023-10-09T12:59:43;17.10;99.90
33673;DHT22;20011;51.510;9.942;2023-10-09T13:02:18;17.10;99.90
33673;DHT22;20011;51.510;9.942;2023-10-09T13:04:58;17.10;99.90
33673;DHT22;20011;51.510;9.942;2023-10-09T13:07:27;17.10;99.90
33673;DHT22;20011;51.510;9.942;2023-10-09T13:09:54;17.10;99.90
33673;DHT22;20011;51.510;9.942;2023-10-09T13:12:38;17.10;99.90
33673;DHT22;20011;51.510;9.942;2023-10-09T13:15:09;17.10;99.90
33673;DHT22;20011;51.510;9.942;2023-10-09T13:17:37;17.10;99.90
33673;DHT22;20011;51.510;9.942;2023-10-09T13:20:05;17.00;99.90
33673;DHT22;20011;51.510;9.942;2023-10-09T13:22:43;17.00;99.90
33673;DHT22;20011;51.510;9.942;2023-10-09T13:25:10;17.10;99.90
33673;DHT22;20011;51.510;9.942;2023-10-09T13:28:00;17.10;99.90
33673;DHT22;20011;51.510;9.942;2023-10-09T13:30:31;17.10;99.90
33673;DHT22;20011;51.510;9.942;2023-10-09T13:33:06;17.00;99.90
33673;DHT22;20011;51.510;9.942;2023-10-09T13:35:36;17.00;99.90
33673;DHT22;20011;51.510;9.942;2023-10-09T13:38:11;17.10;99.90
33673;DHT22;20011;51.510;9.942;2023-10-09T13:40:38;17.10;99.90
33673;DHT22;20011;51.510;9.942;2023-10-09T13:43:05;17.00;99.90
33673;DHT22;20011;51.510;9.942;2023-10-09T13:45:38;17.10;99.90
33673;DHT22;20011;51.510;9.942;2023-10-09T13:48:06;17.10;99.90
33673;DHT22;20011;51.510;9.942;2023-10-09T13:50:38;17.10;99.90
33673;DHT22;20011;51.510;9.942;2023-10-09T13:53:09;17.00;99.90
33673;DHT22;20011;51.510;9.942;2023-10-09T13:55:39;17.10;99.90
33673;DHT22;20011;51.510;9.942;2023-10-09T13:58:10;17.10;99.90
33673;DHT22;20011;51.510;9.942;2023-10-09T14:00:41;17.10;99.90
33673;DHT22;20011;51.510;9.942;2023-10-09T14:03:10;17.00;99.90
33673;DHT22;20011;51.510;9.942;2023-10-09T14:05:40;17.10;99.90
33673;DHT22;20011;51.510;9.942;2023-10-09T14:08:26;17.10;99.90
33673;DHT22;20011;51.510;9.942;2023-10-09T14:10:56;17.10;99.90
33673;DHT22;20011;51.510;9.942;2023-10-09T14:13:23;17.10;99.90
33673;DHT22;20011;51.510;9.942;2023-10-09T14:15:56;17.10;99.90
33673;DHT22;20011;51.510;9.942;2023-10-09T14:18:24;17.10;99.90
33673;DHT22;20011;51.510;9.942;2023-10-09T14:20:51;17.10;99.90
33673;DHT22;20011;51.510;9.942;2023-10-09T14:23:23;17.10;99.90
33673;DHT22;20011;51.510;9.942;2023-10-09T14:25:51;17.20;99.90
33673;DHT22;20011;51.510;9.942;2023-10-09T14:28:22;17.10;99.90
33673;DHT22;20011;51.510;9.942;2023-10-09T14:30:55;17.20;99.90
33673;DHT22;20011;51.510;9.942;2023-10-09T14:33:31;17.20;99.90
33673;DHT22;20011;51.510;9.942;2023-10-09T14:36:03;17.20;99.90
33673;DHT22;20011;51.510;9.942;2023-10-09T14:38:34;17.20;99.90
33673;DHT22;20011;51.510;9.942;2023-10-09T14:41:06;17.30;99.90
33673;DHT22;20011;51.510;9.942;2023-10-09T14:43:39;17.30;99.90
33673;DHT22;20011;51.510;9.942;2023-10-09T14:46:06;17.20;99.90
33673;DHT22;20011;51.510;9.942;2023-10-09T14:48:38;17.20;99.90
33673;DHT22;20011;51.510;9.942;2023-10-09T14:51:04;17.30;99.90
33673;DHT22;20011;51.510;9.942;2023-10-09T14:53:35;17.30;99.90
33673;DHT22;20011;51.510;9.942;2023-10-09T14:56:02;17.30;99.90
33673;DHT22;20011;51.510;9.942;2023-10-09T14:58:36;17.30;99.90
33673;DHT22;20011;51.510;9.942;2023-10-09T15:01:10;17.20;99.90
33673;DHT22;20011;51.510;9.942;2023-10-09T15:03:37;17.30;99.90
33673;DHT22;20011;51.510;9.942;2023-10-09T15:06:04;17.30;99.90
33673;DHT22;20011;51.510;9.942;2023-10-09T15:08:37;17.30;99.90
33673;DHT22;20011;51.510;9.942;2023-10-09T15:11:04;17.30;99.90
33673;DHT22;20011;51.510;9.942;2023-10-09T15:13:33;17.30;99.90
33673;DHT22;20011;51.510;9.942;2023-10-09T15:16:01;17.30;99.90
33673;DHT22;20011;51.510;9.942;2023-10-09T15:18:30;17.30;99.90
33673;DHT22;20011;51.510;9.942;2023-10-09T15:20:59;17.40;99.90
33673;DHT22;20011;51.510;9.942;2023-10-09T15:23:27;17.30;99.90
33673;DHT22;20011;51.510;9.942;2023-10-09T15:25:54;17.30;99.90
33673;DHT22;20011;51.510;9.942;2023-10-09T15:28:22;17.30;99.90
33673;DHT22;20011;51.510;9.942;2023-10-09T15:30:49;17.30;99.90
33673;DHT22;20011;51.510;9.942;2023-10-09T15:33:17;17.40;99.90
33673;DHT22;20011;51.510;9.942;2023-10-09T15:35:46;17.50;99.90
33673;DHT22;20011;51.510;9.942;2023-10-09T15:38:13;17.40;99.90
33673;DHT22;20011;51.510;9.942;2023-10-09T15:40:40;17.40;99.90
33673;DHT22;20011;51.510;9.942;2023-10-09T15:43:10;17.40;99.90
33673;DHT22;20011;51.510;9.942;2023-10-09T15:45:44;17.40;99.90
33673;DHT22;20011;51.510;9.942;2023-10-09T15:48:15;17.40;99.90
33673;DHT22;20011;51.510;9.942;2023-10-09T15:50:46;17.40;99.90
33673;DHT22;20011;51.510;9.942;2023-10-09T15:53:18;17.40;99.90
33673;DHT22;20011;51.510;9.942;2023-10-09T15:55:46;17.40;99.90
33673;DHT22;20011;51.510;9.942;2023-10-09T15:58:13;17.40;99.90
33673;DHT22;20011;51.510;9.942;2023-10-09T16:00:43;17.40;99.90
33673;DHT22;20011;51.510;9.942;2023-10-09T16:03:12;17.30;99.90
33673;DHT22;20011;51.510;9.942;2023-10-09T16:05:41;17.40;99.90
33673;DHT22;20011;51.510;9.942;2023-10-09T16:08:08;17.40;99.90
33673;DHT22;20011;51.510;9.942;2023-10-09T16:10:35;17.40;99.90
33673;DHT22;20011;51.510;9.942;2023-10-09T16:13:03;17.40;99.90
33673;DHT22;20011;51.510;9.942;2023-10-09T16:15:31;17.40;99.90
33673;DHT22;20011;51.510;9.942;2023-10-09T16:17:59;17.30;99.90
33673;DHT22;20011;51.510;9.942;2023-10-09T16:20:30;17.40;99.90
33673;DHT22;20011;51.510;9.942;2023-10-09T16:22:58;17.30;99.90
33673;DHT22;20011;51.510;9.942;2023-10-09T16:25:29;17.30;99.90
33673;DHT22;20011;51.510;9.942;2023-10-09T16:27:57;17.30;99.90